KMMI/MMI METAR and TAF weather

Enter ICAO airport designator
Station Type Date Time Source
KMMI METAR 2020/09/19 21:15 UTC NOAA

KMMI 192115Z AUTO 00000KT 10SM BKN048 BKN065 22/16 A3019 RMK A01


Station Type Date Time Source
KMMI Decoded METAR 2020/09/19 21:15 UTC NOAA

Station name not available
Sep 19, 2020 - 05:15 PM EDT / 2020.09.19 2115 UTC
Wind: Calm:0
Visibility: 10 mile(s):0
Sky conditions: mostly cloudy
Temperature: 71 F (22 C)
Dew Point: 60 F (16 C)
Relative Humidity: 68%
Pressure (altimeter): 30.19 in. Hg (1022 hPa)
ob: KMMI 192115Z AUTO 00000KT 10SM BKN048 BKN065 22/16 A3019 RMK A01
cycle: 21

Station Type Date Time Source
KMMI TAF UTC NOAA

Error!

Example: see airport list